Time;durP1;ratioP1;P1;durP2;ratioP2;P2;SDS_P1;SDS_P2;PMS_P1;PMS_P2;Temp;Humidity;BMP_temperature;BMP_pressure;BME280_temperature;BME280_humidity;BME280_pressure;Samples;Min_cycle;Max_cycle;Signal;HPM_P1;HPM_P2
2022/06/23 00:02:22;;;;;;;6.90;3.73;;;;;;;;;;727448;189;918964;-73
2022/06/23 00:04:48;;;;;;;8.30;3.50;;;;;;;;;;769434;180;626804;-72
2022/06/23 00:07:24;;;;;;;10.03;3.67;;;;;;;;;;762669;180;633747;-72
2022/06/23 00:09:48;;;;;;;8.97;3.97;;;;;;;;;;764486;180;918391;-72
2022/06/23 00:12:16;;;;;;;7.28;3.53;;;;;;;;;;759496;183;919104;-71
2022/06/23 00:14:42;;;;;;;8.03;3.43;;;;;;;;;;767594;181;919196;-72
2022/06/23 00:17:14;;;;;;;9.07;3.53;;;;;;;;;;771973;181;918896;-72
2022/06/23 00:19:39;;;;;;;20.30;3.97;;;;;;;;;;767044;181;918538;-71
2022/06/23 00:22:05;;;;;;;7.67;3.87;;;;;;;;;;757072;181;1694320;-72
2022/06/23 00:24:31;;;;;;;14.87;4.50;;;;;;;;;;767935;181;918278;-71
2022/06/23 00:26:57;;;;;;;6.47;3.90;;;;;;;;;;762410;183;919046;-72
2022/06/23 00:29:23;;;;;;;5.27;3.30;;;;;;;;;;762933;181;918347;-73
2022/06/23 00:31:53;;;;;;;4.17;3.33;;;;;;;;;;766899;181;918350;-72
2022/06/23 00:34:18;;;;;;;6.50;3.60;;;;;;;;;;762984;181;918835;-72
2022/06/23 00:36:47;;;;;;;6.60;4.10;;;;;;;;;;772644;180;918007;-72
2022/06/23 00:39:19;;;;;;;8.00;3.87;;;;;;;;;;771391;180;919242;-71
2022/06/23 00:41:44;;;;;;;10.05;3.50;;;;;;;;;;765326;181;919154;-72
2022/06/23 00:44:10;;;;;;;6.17;3.43;;;;;;;;;;757211;181;919619;-72
2022/06/23 00:46:41;;;;;;;6.67;3.80;;;;;;;;;;762873;181;918949;-71
2022/06/23 00:49:08;;;;;;;8.40;3.73;;;;;;;;;;768585;183;618662;-72
2022/06/23 00:51:36;;;;;;;5.40;4.20;;;;;;;;;;769807;182;618743;-71
2022/06/23 00:54:02;;;;;;;5.47;4.00;;;;;;;;;;769030;180;631051;-71
2022/06/23 00:56:43;;;;;;;6.93;4.73;;;;;;;;;;766516;181;620051;-72
2022/06/23 00:59:10;;;;;;;5.27;4.20;;;;;;;;;;773560;181;640949;-72
2022/06/23 01:01:39;;;;;;;8.77;5.27;;;;;;;;;;778946;181;615491;-72
2022/06/23 01:04:04;;;;;;;9.23;4.27;;;;;;;;;;733804;188;919642;-70
2022/06/23 01:06:36;;;;;;;5.70;3.50;;;;;;;;;;739470;190;920163;-72
2022/06/23 01:09:02;;;;;;;10.27;4.23;;;;;;;;;;754111;185;919520;-71
2022/06/23 01:11:34;;;;;;;11.10;4.53;;;;;;;;;;757478;185;915109;-71
2022/06/23 01:14:15;;;;;;;5.53;3.90;;;;;;;;;;750499;185;915346;-71
2022/06/23 01:16:41;;;;;;;8.60;4.77;;;;;;;;;;719429;189;916760;-71
2022/06/23 01:19:18;;;;;;;6.57;4.10;;;;;;;;;;738172;189;920455;-71
2022/06/23 01:21:44;;;;;;;6.93;3.83;;;;;;;;;;743701;188;918998;-72
2022/06/23 01:24:14;;;;;;;8.40;4.30;;;;;;;;;;744496;188;919508;-71
2022/06/23 01:26:57;;;;;;;6.83;4.00;;;;;;;;;;728475;192;918048;-71
2022/06/23 01:29:23;;;;;;;7.53;4.20;;;;;;;;;;741901;186;918589;-71
2022/06/23 01:31:50;;;;;;;9.37;5.43;;;;;;;;;;763773;180;918373;-71
2022/06/23 01:34:33;;;;;;;5.78;4.28;;;;;;;;;;761289;181;918132;-71
2022/06/23 01:37:02;;;;;;;10.00;4.50;;;;;;;;;;761358;183;1018910;-71
2022/06/23 01:39:29;;;;;;;5.90;3.83;;;;;;;;;;764002;182;919687;-71
2022/06/23 01:41:56;;;;;;;8.60;4.53;;;;;;;;;;761240;180;918120;-71
2022/06/23 01:44:20;;;;;;;9.80;4.30;;;;;;;;;;760844;181;918671;-72
2022/06/23 01:46:47;;;;;;;8.67;4.60;;;;;;;;;;760982;180;919048;-72
2022/06/23 01:49:13;;;;;;;8.87;4.90;;;;;;;;;;768591;180;917534;-71
2022/06/23 01:51:39;;;;;;;11.37;4.10;;;;;;;;;;767600;180;919751;-72
2022/06/23 01:54:06;;;;;;;6.20;3.77;;;;;;;;;;759510;180;1116222;-71
2022/06/23 01:56:32;;;;;;;6.23;4.10;;;;;;;;;;744051;189;918867;-71
2022/06/23 01:58:57;;;;;;;5.93;3.40;;;;;;;;;;764788;180;918909;-72
2022/06/23 02:01:30;;;;;;;10.93;4.12;;;;;;;;;;760827;180;919084;-71
2022/06/23 02:03:56;;;;;;;7.30;3.50;;;;;;;;;;758737;183;918717;-72
2022/06/23 02:06:22;;;;;;;6.70;3.50;;;;;;;;;;765665;181;920120;-72
2022/06/23 02:08:48;;;;;;;11.73;4.97;;;;;;;;;;760926;183;918829;-72
2022/06/23 02:11:20;;;;;;;8.53;3.50;;;;;;;;;;763890;181;919152;-73
2022/06/23 02:13:50;;;;;;;4.80;3.60;;;;;;;;;;774355;181;918777;-70
2022/06/23 02:16:19;;;;;;;9.17;4.13;;;;;;;;;;783835;179;918220;-70
2022/06/23 02:18:46;;;;;;;4.97;3.80;;;;;;;;;;768914;181;917182;-71
2022/06/23 02:21:23;;;;;;;13.43;4.13;;;;;;;;;;770759;180;926449;-71
2022/06/23 02:23:48;;;;;;;3.93;3.53;;;;;;;;;;771913;180;919551;-71
2022/06/23 02:26:29;;;;;;;5.47;3.60;;;;;;;;;;769631;181;918110;-72
2022/06/23 02:29:05;;;;;;;5.37;4.03;;;;;;;;;;761681;184;919001;-71
2022/06/23 02:31:32;;;;;;;8.53;3.47;;;;;;;;;;755924;181;919179;-72
2022/06/23 02:33:59;;;;;;;10.97;3.40;;;;;;;;;;757237;183;919393;-71
2022/06/23 02:36:29;;;;;;;8.53;3.60;;;;;;;;;;764450;182;837361;-72
2022/06/23 02:38:55;;;;;;;5.93;3.87;;;;;;;;;;770252;180;628605;-72
2022/06/23 02:41:22;;;;;;;3.67;3.23;;;;;;;;;;766301;180;918491;-72
2022/06/23 02:43:47;;;;;;;6.00;3.60;;;;;;;;;;762734;181;2618944;-71
2022/06/23 02:46:16;;;;;;;17.37;4.28;;;;;;;;;;766940;181;919078;-73
2022/06/23 02:48:43;;;;;;;5.03;3.30;;;;;;;;;;768104;180;918643;-72
2022/06/23 02:51:11;;;;;;;8.13;3.43;;;;;;;;;;733403;190;919745;-72
2022/06/23 02:53:40;;;;;;;4.37;3.20;;;;;;;;;;757892;184;919352;-72
2022/06/23 02:56:06;;;;;;;7.10;3.33;;;;;;;;;;763602;183;918896;-72
2022/06/23 02:58:35;;;;;;;5.63;3.60;;;;;;;;;;757560;182;918691;-72
2022/06/23 03:01:02;;;;;;;12.20;3.43;;;;;;;;;;756614;181;918883;-71
2022/06/23 03:03:31;;;;;;;7.00;4.40;;;;;;;;;;764262;181;622533;-72
2022/06/23 03:05:58;;;;;;;4.23;3.07;;;;;;;;;;766277;181;620864;-71
2022/06/23 03:08:30;;;;;;;11.53;3.47;;;;;;;;;;765968;181;624983;-71
2022/06/23 03:10:58;;;;;;;11.80;3.60;;;;;;;;;;771801;180;918110;-72
2022/06/23 03:13:39;;;;;;;5.97;3.60;;;;;;;;;;774875;180;918229;-71
2022/06/23 03:16:05;;;;;;;12.43;4.20;;;;;;;;;;770371;179;918291;-72
2022/06/23 03:18:50;;;;;;;6.97;3.30;;;;;;;;;;780058;180;918502;-71
2022/06/23 03:21:16;;;;;;;3.90;2.90;;;;;;;;;;775380;180;918412;-71
2022/06/23 03:23:41;;;;;;;9.23;3.90;;;;;;;;;;769946;180;919844;-71
2022/06/23 03:26:23;;;;;;;6.80;3.95;;;;;;;;;;764417;180;918460;-71
2022/06/23 03:28:49;;;;;;;7.70;4.27;;;;;;;;;;751414;181;918647;-71
2022/06/23 03:31:15;;;;;;;6.90;3.73;;;;;;;;;;762553;182;918583;-72
2022/06/23 03:33:40;;;;;;;6.90;4.33;;;;;;;;;;761022;180;918881;-71
2022/06/23 03:36:12;;;;;;;8.80;4.30;;;;;;;;;;757308;181;919462;-71
2022/06/23 03:43:47;;;;;;;6.60;3.93;;;;;;;;;;771040;182;918687;-71
2022/06/23 03:46:19;;;;;;;7.10;4.43;;;;;;;;;;761973;180;919858;-71
2022/06/23 03:48:46;;;;;;;6.77;3.40;;;;;;;;;;759711;181;921144;-70
2022/06/23 03:51:12;;;;;;;12.37;3.97;;;;;;;;;;761439;180;919184;-71
2022/06/23 03:53:38;;;;;;;8.60;4.80;;;;;;;;;;763241;181;919546;-69
2022/06/23 03:56:14;;;;;;;8.37;4.37;;;;;;;;;;765904;180;916360;-70
2022/06/23 03:58:40;;;;;;;8.73;5.27;;;;;;;;;;765967;180;920759;-70
2022/06/23 04:01:21;;;;;;;7.90;5.20;;;;;;;;;;763619;180;919390;-70
2022/06/23 04:03:46;;;;;;;10.07;6.47;;;;;;;;;;760741;180;918518;-69
2022/06/23 04:06:18;;;;;;;15.23;12.80;;;;;;;;;;761908;181;917274;-70
2022/06/23 04:08:45;;;;;;;13.57;11.60;;;;;;;;;;762219;181;918746;-69
2022/06/23 04:13:42;;;;;;;27.37;24.43;;;;;;;;;;751917;181;921043;-69
2022/06/23 04:16:09;;;;;;;30.63;27.43;;;;;;;;;;768054;181;921711;-69
2022/06/23 04:18:34;;;;;;;21.57;13.67;;;;;;;;;;762058;181;920252;-70
2022/06/23 04:21:01;;;;;;;18.23;10.50;;;;;;;;;;761259;180;917849;-69
2022/06/23 04:23:28;;;;;;;18.07;10.33;;;;;;;;;;768421;180;922723;-69
2022/06/23 04:25:56;;;;;;;14.60;11.77;;;;;;;;;;764107;180;918451;-70
2022/06/23 04:28:23;;;;;;;15.00;9.37;;;;;;;;;;768166;181;908333;-70
2022/06/23 04:30:49;;;;;;;14.13;9.07;;;;;;;;;;764651;180;912073;-73
2022/06/23 04:33:15;;;;;;;19.80;15.00;;;;;;;;;;773557;180;914603;-72
2022/06/23 04:35:41;;;;;;;10.60;9.50;;;;;;;;;;763957;180;914770;-71
2022/06/23 04:38:26;;;;;;;10.13;6.90;;;;;;;;;;767497;181;911690;-70
2022/06/23 04:40:55;;;;;;;9.50;7.80;;;;;;;;;;767894;180;633185;-70
2022/06/23 04:43:27;;;;;;;9.57;6.30;;;;;;;;;;769984;181;915499;-71
2022/06/23 04:45:56;;;;;;;10.90;7.17;;;;;;;;;;770848;181;919044;-72
2022/06/23 04:48:33;;;;;;;7.60;5.77;;;;;;;;;;765693;181;919323;-71
2022/06/23 04:51:00;;;;;;;12.80;11.00;;;;;;;;;;769804;180;626787;-72
2022/06/23 04:53:26;;;;;;;10.95;7.90;;;;;;;;;;765758;180;919789;-70
2022/06/23 04:55:54;;;;;;;7.30;5.93;;;;;;;;;;777021;181;628265;-70
2022/06/23 04:58:21;;;;;;;5.87;4.87;;;;;;;;;;769056;180;639900;-70
2022/06/23 05:00:48;;;;;;;7.83;6.00;;;;;;;;;;763403;180;934483;-71
2022/06/23 05:03:17;;;;;;;7.97;6.00;;;;;;;;;;770562;181;917232;-71
2022/06/23 05:05:43;;;;;;;12.43;5.93;;;;;;;;;;774744;181;920564;-71
2022/06/23 05:08:19;;;;;;;5.57;4.80;;;;;;;;;;763690;180;918098;-74
2022/06/23 05:10:46;;;;;;;8.80;5.90;;;;;;;;;;765490;180;963856;-71
2022/06/23 05:13:15;;;;;;;7.93;5.40;;;;;;;;;;763499;180;918636;-72
2022/06/23 05:15:43;;;;;;;9.70;5.10;;;;;;;;;;767472;181;917681;-71
2022/06/23 05:18:15;;;;;;;8.13;5.30;;;;;;;;;;762961;180;919639;-72
2022/06/23 05:20:46;;;;;;;6.10;5.40;;;;;;;;;;764831;180;919812;-71
2022/06/23 05:23:13;;;;;;;6.40;4.90;;;;;;;;;;760338;180;919129;-70
2022/06/23 05:25:40;;;;;;;10.90;6.40;;;;;;;;;;769685;183;906190;-70
2022/06/23 05:28:06;;;;;;;6.17;5.40;;;;;;;;;;776036;180;919763;-69
2022/06/23 05:30:32;;;;;;;8.27;5.30;;;;;;;;;;760437;181;918344;-70
2022/06/23 05:33:04;;;;;;;6.70;5.43;;;;;;;;;;777073;178;627956;-70
2022/06/23 05:35:37;;;;;;;6.07;5.17;;;;;;;;;;777989;180;620176;-71
2022/06/23 05:38:05;;;;;;;9.13;4.97;;;;;;;;;;769284;180;919230;-70
2022/06/23 05:40:37;;;;;;;6.80;4.97;;;;;;;;;;760021;180;919772;-72
2022/06/23 05:43:03;;;;;;;6.07;4.70;;;;;;;;;;739097;188;916060;-71
2022/06/23 05:45:29;;;;;;;6.33;5.03;;;;;;;;;;768372;181;915072;-70
2022/06/23 05:47:55;;;;;;;15.40;4.70;;;;;;;;;;763379;181;696532;-69
2022/06/23 05:50:21;;;;;;;9.13;4.63;;;;;;;;;;768405;181;916394;-69
2022/06/23 05:52:49;;;;;;;6.27;4.30;;;;;;;;;;771179;181;869338;-71
2022/06/23 05:55:31;;;;;;;12.40;4.70;;;;;;;;;;768264;180;944772;-71
2022/06/23 05:57:57;;;;;;;6.33;4.27;;;;;;;;;;765861;181;918803;-73
2022/06/23 06:00:26;;;;;;;7.00;4.63;;;;;;;;;;766528;181;916433;-74
2022/06/23 06:03:07;;;;;;;7.37;3.90;;;;;;;;;;761972;181;918899;-72
2022/06/23 06:05:34;;;;;;;6.20;4.13;;;;;;;;;;759781;182;916710;-72
2022/06/23 06:07:59;;;;;;;6.70;3.87;;;;;;;;;;762345;181;919519;-71
2022/06/23 06:10:25;;;;;;;5.40;3.37;;;;;;;;;;763575;180;916502;-74
2022/06/23 06:12:51;;;;;;;5.60;4.00;;;;;;;;;;763330;181;918239;-73
2022/06/23 06:15:17;;;;;;;8.57;3.57;;;;;;;;;;773612;181;918719;-73
2022/06/23 06:17:43;;;;;;;7.47;4.37;;;;;;;;;;740191;187;939109;-74
2022/06/23 06:20:09;;;;;;;7.17;4.07;;;;;;;;;;763905;181;990638;-73
2022/06/23 06:22:50;;;;;;;6.27;4.30;;;;;;;;;;761705;180;917448;-72
2022/06/23 06:25:23;;;;;;;6.97;4.27;;;;;;;;;;761666;181;915262;-75
2022/06/23 06:27:48;;;;;;;5.47;3.83;;;;;;;;;;767157;181;915138;-74
2022/06/23 06:30:15;;;;;;;10.93;3.97;;;;;;;;;;770126;181;917976;-72
2022/06/23 06:32:40;;;;;;;5.47;3.72;;;;;;;;;;767211;180;918933;-74
2022/06/23 06:35:07;;;;;;;6.90;3.70;;;;;;;;;;774807;181;918191;-73
2022/06/23 06:37:33;;;;;;;6.80;3.50;;;;;;;;;;771475;180;920314;-73
2022/06/23 06:39:58;;;;;;;7.43;3.87;;;;;;;;;;773465;180;919896;-72
2022/06/23 06:42:27;;;;;;;5.90;3.80;;;;;;;;;;771870;180;920289;-73
2022/06/23 06:44:53;;;;;;;6.07;3.60;;;;;;;;;;757588;184;918887;-74
2022/06/23 06:47:20;;;;;;;5.53;3.87;;;;;;;;;;760611;181;918739;-73
2022/06/23 06:49:45;;;;;;;5.63;3.80;;;;;;;;;;729332;190;920436;-73
2022/06/23 06:52:12;;;;;;;5.53;3.40;;;;;;;;;;767364;180;918004;-74
2022/06/23 06:54:41;;;;;;;6.43;3.67;;;;;;;;;;773512;180;918693;-70
2022/06/23 06:57:07;;;;;;;5.60;3.60;;;;;;;;;;769205;180;918548;-73
2022/06/23 06:59:38;;;;;;;7.20;3.83;;;;;;;;;;760154;184;915342;-72
2022/06/23 07:02:04;;;;;;;6.30;4.50;;;;;;;;;;769405;181;915775;-70
2022/06/23 07:04:30;;;;;;;4.57;3.47;;;;;;;;;;764800;182;914884;-73
2022/06/23 07:06:55;;;;;;;7.03;3.20;;;;;;;;;;761745;181;915739;-73
2022/06/23 07:09:24;;;;;;;6.63;3.93;;;;;;;;;;764255;182;918510;-73
2022/06/23 07:11:49;;;;;;;4.60;3.50;;;;;;;;;;762591;180;917733;-73
2022/06/23 07:14:15;;;;;;;5.73;2.90;;;;;;;;;;773432;180;919119;-75
2022/06/23 07:16:41;;;;;;;4.23;3.00;;;;;;;;;;770211;180;915946;-74
2022/06/23 07:19:10;;;;;;;6.53;3.80;;;;;;;;;;760041;183;915119;-76
2022/06/23 07:21:37;;;;;;;6.97;3.57;;;;;;;;;;759738;181;919438;-74
2022/06/23 07:24:08;;;;;;;5.40;3.63;;;;;;;;;;730471;188;929966;-73
2022/06/23 07:26:34;;;;;;;9.20;3.20;;;;;;;;;;764167;184;679077;-74
2022/06/23 07:29:04;;;;;;;3.80;2.73;;;;;;;;;;733652;189;912962;-74
2022/06/23 07:31:30;;;;;;;5.70;3.30;;;;;;;;;;746340;188;629230;-74
2022/06/23 07:33:57;;;;;;;4.80;3.23;;;;;;;;;;742718;189;626373;-73
2022/06/23 07:36:23;;;;;;;6.43;2.83;;;;;;;;;;768287;183;919027;-73
2022/06/23 07:38:53;;;;;;;5.70;3.50;;;;;;;;;;772616;180;919285;-75
2022/06/23 07:41:21;;;;;;;4.90;2.77;;;;;;;;;;772675;180;919100;-72
2022/06/23 07:43:47;;;;;;;5.03;3.00;;;;;;;;;;761636;180;918528;-72
2022/06/23 07:46:13;;;;;;;5.53;3.50;;;;;;;;;;779477;181;903410;-73
2022/06/23 07:48:39;;;;;;;5.13;3.50;;;;;;;;;;766750;181;987783;-76
2022/06/23 07:51:05;;;;;;;4.70;2.70;;;;;;;;;;772379;180;919252;-73
2022/06/23 07:53:32;;;;;;;6.33;3.50;;;;;;;;;;769624;181;918894;-75
2022/06/23 07:55:58;;;;;;;6.27;3.50;;;;;;;;;;763170;179;1123519;-77
2022/06/23 07:58:23;;;;;;;5.97;3.43;;;;;;;;;;764430;180;918633;-75
2022/06/23 08:00:49;;;;;;;4.07;2.73;;;;;;;;;;768541;180;918119;-77
2022/06/23 08:03:18;;;;;;;4.97;2.90;;;;;;;;;;772685;181;917809;-75
2022/06/23 08:05:44;;;;;;;5.07;2.67;;;;;;;;;;771713;181;919582;-77
2022/06/23 08:08:10;;;;;;;4.17;2.70;;;;;;;;;;740358;187;714562;-76
2022/06/23 08:10:36;;;;;;;9.57;3.30;;;;;;;;;;762803;182;919160;-77
2022/06/23 08:13:02;;;;;;;8.93;3.20;;;;;;;;;;738161;188;1019792;-75
2022/06/23 08:18:04;;;;;;;7.73;2.50;;;;;;;;;;734237;188;918875;-72
2022/06/23 08:20:30;;;;;;;5.27;2.43;;;;;;;;;;735041;189;918650;-76
2022/06/23 08:22:55;;;;;;;5.27;2.60;;;;;;;;;;764376;180;919803;-74
2022/06/23 08:25:21;;;;;;;6.57;2.80;;;;;;;;;;765811;180;918771;-73
2022/06/23 08:27:47;;;;;;;4.93;2.97;;;;;;;;;;766965;181;918994;-73
2022/06/23 08:30:14;;;;;;;6.23;3.30;;;;;;;;;;765561;181;919011;-78
2022/06/23 08:32:39;;;;;;;4.27;3.10;;;;;;;;;;762575;181;918818;-73
2022/06/23 08:35:05;;;;;;;5.67;3.20;;;;;;;;;;767284;181;919121;-74
2022/06/23 08:37:35;;;;;;;8.43;2.90;;;;;;;;;;748735;181;1328863;-74
2022/06/23 08:40:10;;;;;;;8.47;3.00;;;;;;;;;;741265;185;920862;-71
2022/06/23 08:42:40;;;;;;;7.78;3.00;;;;;;;;;;742773;187;918949;-76
2022/06/23 08:45:06;;;;;;;4.03;2.20;;;;;;;;;;764011;181;930650;-70
2022/06/23 08:47:32;;;;;;;6.63;3.00;;;;;;;;;;767492;181;919503;-72
2022/06/23 08:49:58;;;;;;;5.33;2.23;;;;;;;;;;742832;185;919213;-73
2022/06/23 08:52:24;;;;;;;7.07;3.57;;;;;;;;;;743035;187;919152;-73
2022/06/23 08:54:50;;;;;;;4.60;2.80;;;;;;;;;;769931;181;919102;-72
2022/06/23 08:57:16;;;;;;;3.87;2.57;;;;;;;;;;767290;181;963398;-74
2022/06/23 09:00:01;;;;;;;4.80;2.33;;;;;;;;;;767565;181;919313;-76
2022/06/23 09:02:26;;;;;;;4.67;2.60;;;;;;;;;;767099;180;918940;-74
2022/06/23 09:04:53;;;;;;;7.40;3.00;;;;;;;;;;768913;180;919267;-74
2022/06/23 09:07:24;;;;;;;5.60;3.07;;;;;;;;;;766690;178;918759;-76
2022/06/23 09:09:50;;;;;;;4.33;2.63;;;;;;;;;;768101;180;917834;-77
2022/06/23 09:12:32;;;;;;;5.13;2.93;;;;;;;;;;765009;180;918166;-75
2022/06/23 09:15:04;;;;;;;4.82;2.05;;;;;;;;;;766562;180;918745;-76
2022/06/23 09:17:33;;;;;;;5.47;2.30;;;;;;;;;;773557;181;628864;-72
2022/06/23 09:20:16;;;;;;;5.87;2.00;;;;;;;;;;759930;181;924809;-71
2022/06/23 09:22:45;;;;;;;5.57;2.40;;;;;;;;;;731151;192;905553;-73
2022/06/23 09:25:17;;;;;;;4.77;2.40;;;;;;;;;;753670;184;918740;-71
2022/06/23 09:27:46;;;;;;;4.87;2.23;;;;;;;;;;756670;181;919364;-74
2022/06/23 09:30:28;;;;;;;4.33;2.17;;;;;;;;;;763243;181;920465;-76
2022/06/23 09:32:56;;;;;;;5.40;2.20;;;;;;;;;;756269;184;626324;-80
2022/06/23 09:35:37;;;;;;;3.53;2.33;;;;;;;;;;773488;181;636092;-76
2022/06/23 09:38:05;;;;;;;4.53;2.47;;;;;;;;;;774457;181;675580;-73
2022/06/23 09:40:33;;;;;;;4.33;2.07;;;;;;;;;;767411;181;637888;-75
2022/06/23 09:43:14;;;;;;;3.67;1.98;;;;;;;;;;768083;181;843983;-76
2022/06/23 09:45:41;;;;;;;4.77;2.40;;;;;;;;;;756018;184;918948;-71
2022/06/23 09:48:07;;;;;;;5.43;2.20;;;;;;;;;;771096;180;918567;-74
2022/06/23 09:50:44;;;;;;;3.80;2.27;;;;;;;;;;767936;180;918948;-73
2022/06/23 09:53:25;;;;;;;7.13;2.67;;;;;;;;;;770846;180;918994;-75
2022/06/23 09:55:50;;;;;;;3.40;2.10;;;;;;;;;;757087;181;919923;-77
2022/06/23 09:58:17;;;;;;;2.80;2.10;;;;;;;;;;765426;181;918798;-74
2022/06/23 10:00:49;;;;;;;3.93;2.03;;;;;;;;;;764966;181;918579;-72
2022/06/23 10:03:17;;;;;;;4.33;2.30;;;;;;;;;;743552;186;918377;-71
2022/06/23 10:05:47;;;;;;;5.70;2.00;;;;;;;;;;734310;186;918624;-72
2022/06/23 10:08:21;;;;;;;6.40;2.53;;;;;;;;;;735544;185;918492;-72
2022/06/23 10:10:53;;;;;;;4.10;2.20;;;;;;;;;;761754;181;918952;-74
2022/06/23 10:13:24;;;;;;;5.90;2.13;;;;;;;;;;746794;186;918593;-70
2022/06/23 10:15:51;;;;;;;5.10;2.50;;;;;;;;;;772764;181;918646;-74
2022/06/23 10:18:23;;;;;;;6.73;2.30;;;;;;;;;;764157;180;927541;-71
2022/06/23 10:20:53;;;;;;;4.30;2.50;;;;;;;;;;767869;180;921122;-74
2022/06/23 10:23:40;;;;;;;3.70;2.42;;;;;;;;;;771125;180;919142;-74
2022/06/23 10:26:09;;;;;;;4.10;2.27;;;;;;;;;;765678;180;934977;-71
2022/06/23 10:28:51;;;;;;;5.40;2.90;;;;;;;;;;764760;181;1430432;-80
2022/06/23 10:31:36;;;;;;;3.57;2.27;;;;;;;;;;743852;187;917619;-75
2022/06/23 10:34:02;;;;;;;3.40;2.33;;;;;;;;;;758419;185;809768;-70
2022/06/23 10:36:44;;;;;;;4.60;2.20;;;;;;;;;;744314;186;918968;-68
2022/06/23 10:39:13;;;;;;;3.43;1.90;;;;;;;;;;724152;190;919132;-70
2022/06/23 10:41:40;;;;;;;3.73;1.90;;;;;;;;;;738813;189;918611;-68
2022/06/23 10:44:09;;;;;;;4.60;2.43;;;;;;;;;;735364;188;922002;-69
2022/06/23 10:46:42;;;;;;;5.63;2.23;;;;;;;;;;762418;180;897218;-72
2022/06/23 10:49:10;;;;;;;5.30;2.50;;;;;;;;;;767831;180;625843;-70
2022/06/23 10:51:38;;;;;;;3.67;2.60;;;;;;;;;;769538;180;626366;-71
2022/06/23 10:54:06;;;;;;;3.90;2.20;;;;;;;;;;776250;180;626179;-69
2022/06/23 10:56:35;;;;;;;8.67;2.83;;;;;;;;;;779128;180;659384;-70
2022/06/23 10:59:01;;;;;;;5.27;3.10;;;;;;;;;;770092;180;816880;-73
2022/06/23 11:01:30;;;;;;;5.30;2.80;;;;;;;;;;763046;183;916365;-72
2022/06/23 11:04:01;;;;;;;3.67;2.37;;;;;;;;;;770120;181;650446;-71
2022/06/23 11:06:30;;;;;;;7.63;3.00;;;;;;;;;;762912;181;631989;-70
2022/06/23 11:09:10;;;;;;;7.10;3.20;;;;;;;;;;764651;181;623464;-71
2022/06/23 11:11:52;;;;;;;7.97;3.30;;;;;;;;;;760125;181;622461;-71
2022/06/23 11:14:23;;;;;;;12.90;3.07;;;;;;;;;;733865;188;649929;-71
2022/06/23 11:16:52;;;;;;;7.97;3.17;;;;;;;;;;752799;186;638497;-69
2022/06/23 11:19:24;;;;;;;7.17;3.60;;;;;;;;;;766949;180;666387;-70
2022/06/23 11:22:05;;;;;;;8.10;2.90;;;;;;;;;;771659;181;615611;-75
2022/06/23 11:24:41;;;;;;;5.70;3.40;;;;;;;;;;756307;184;646826;-70
2022/06/23 11:27:08;;;;;;;9.47;3.70;;;;;;;;;;770249;181;627128;-72
2022/06/23 11:29:40;;;;;;;7.53;2.80;;;;;;;;;;768030;180;621959;-78
2022/06/23 11:32:07;;;;;;;5.10;3.23;;;;;;;;;;771478;180;623217;-76
2022/06/23 11:34:33;;;;;;;6.50;3.33;;;;;;;;;;767776;180;629464;-70
2022/06/23 11:37:00;;;;;;;6.23;3.27;;;;;;;;;;766643;180;725792;-71
2022/06/23 11:39:41;;;;;;;6.30;3.33;;;;;;;;;;768395;181;640787;-67
2022/06/23 11:42:09;;;;;;;4.63;2.47;;;;;;;;;;757905;181;916887;-74
2022/06/23 11:44:35;;;;;;;3.47;2.30;;;;;;;;;;767518;181;633769;-69
2022/06/23 11:47:18;;;;;;;6.60;2.70;;;;;;;;;;773072;180;633249;-76
2022/06/23 11:50:02;;;;;;;5.77;2.30;;;;;;;;;;756405;184;626451;-71
2022/06/23 11:52:27;;;;;;;6.30;2.27;;;;;;;;;;751243;181;626168;-70
2022/06/23 11:55:11;;;;;;;5.27;2.80;;;;;;;;;;756374;181;626627;-75
2022/06/23 11:57:52;;;;;;;7.10;2.43;;;;;;;;;;759669;181;636338;-71
2022/06/23 12:00:18;;;;;;;3.67;2.50;;;;;;;;;;755624;181;638442;-71
2022/06/23 12:03:01;;;;;;;3.70;2.20;;;;;;;;;;771454;180;642351;-74
2022/06/23 12:05:30;;;;;;;3.93;2.40;;;;;;;;;;774482;180;638530;-72
2022/06/23 12:07:57;;;;;;;3.20;2.27;;;;;;;;;;766672;180;635960;-72
2022/06/23 12:10:25;;;;;;;4.37;2.63;;;;;;;;;;773361;180;636761;-71
2022/06/23 12:12:50;;;;;;;15.93;4.20;;;;;;;;;;768249;180;633859;-70
2022/06/23 12:15:18;;;;;;;3.70;2.10;;;;;;;;;;768814;180;631762;-72
2022/06/23 12:17:44;;;;;;;4.40;2.53;;;;;;;;;;769856;181;615750;-71
2022/06/23 12:20:11;;;;;;;4.10;2.33;;;;;;;;;;767162;181;626631;-70
2022/06/23 12:22:38;;;;;;;5.50;2.50;;;;;;;;;;738197;185;624128;-69
2022/06/23 12:25:06;;;;;;;3.80;2.57;;;;;;;;;;738207;186;638023;-72
2022/06/23 12:27:32;;;;;;;5.83;2.30;;;;;;;;;;769485;181;633470;-69
2022/06/23 12:30:05;;;;;;;3.77;2.30;;;;;;;;;;739587;188;671504;-72
2022/06/23 12:32:32;;;;;;;2.50;1.70;;;;;;;;;;738250;188;628415;-70
2022/06/23 12:35:02;;;;;;;5.57;2.43;;;;;;;;;;736573;188;690413;-70
2022/06/23 12:37:30;;;;;;;5.57;2.13;;;;;;;;;;771849;180;643092;-71
2022/06/23 12:40:02;;;;;;;7.63;2.53;;;;;;;;;;771505;181;644901;-73
2022/06/23 12:42:31;;;;;;;4.30;2.37;;;;;;;;;;774508;180;644125;-75
2022/06/23 12:44:56;;;;;;;3.53;2.50;;;;;;;;;;768497;180;643092;-71
2022/06/23 12:47:23;;;;;;;4.30;2.07;;;;;;;;;;770595;181;628783;-72
2022/06/23 12:50:04;;;;;;;7.63;2.40;;;;;;;;;;770233;181;645975;-73
2022/06/23 12:52:30;;;;;;;4.67;2.53;;;;;;;;;;762824;180;629642;-68
2022/06/23 12:55:12;;;;;;;4.83;2.33;;;;;;;;;;774768;181;624370;-74
2022/06/23 12:57:41;;;;;;;6.03;2.43;;;;;;;;;;763207;181;919184;-75
2022/06/23 13:00:09;;;;;;;4.27;2.20;;;;;;;;;;773531;180;625194;-70
2022/06/23 13:02:36;;;;;;;3.97;2.40;;;;;;;;;;770746;183;616183;-72
2022/06/23 13:05:03;;;;;;;4.00;2.30;;;;;;;;;;765517;180;619928;-70
2022/06/23 13:07:29;;;;;;;3.30;2.03;;;;;;;;;;762257;181;639549;-70
2022/06/23 13:10:05;;;;;;;4.30;2.27;;;;;;;;;;770125;181;630936;-71
2022/06/23 13:12:36;;;;;;;8.80;3.23;;;;;;;;;;770878;180;625038;-73
2022/06/23 13:15:01;;;;;;;3.40;2.40;;;;;;;;;;768417;180;752727;-73
2022/06/23 13:17:32;;;;;;;8.90;2.77;;;;;;;;;;764552;180;918239;-73
2022/06/23 13:19:55;;;;;;;3.80;2.40;;;;;;;;;;761183;184;623905;-71
2022/06/23 13:22:21;;;;;;;6.53;2.27;;;;;;;;;;764224;183;627199;-68
2022/06/23 13:24:47;;;;;;;4.70;2.57;;;;;;;;;;766110;183;639715;-72
2022/06/23 13:27:14;;;;;;;7.63;2.40;;;;;;;;;;764521;180;888276;-72
2022/06/23 13:29:55;;;;;;;3.67;2.60;;;;;;;;;;767081;183;615699;-72
2022/06/23 13:32:25;;;;;;;5.90;2.93;;;;;;;;;;777504;181;641769;-73
2022/06/23 13:34:52;;;;;;;7.03;2.50;;;;;;;;;;766049;181;918565;-78
2022/06/23 13:37:19;;;;;;;6.03;3.00;;;;;;;;;;771007;181;622797;-77
2022/06/23 13:39:49;;;;;;;5.63;2.90;;;;;;;;;;768182;181;629525;-72
2022/06/23 13:42:16;;;;;;;5.57;3.93;;;;;;;;;;773194;180;653860;-76
2022/06/23 13:44:45;;;;;;;5.33;2.93;;;;;;;;;;773692;180;644006;-73
2022/06/23 13:47:20;;;;;;;10.03;3.40;;;;;;;;;;769473;180;679420;-77
2022/06/23 13:50:00;;;;;;;5.20;3.03;;;;;;;;;;765455;180;635063;-76
2022/06/23 13:52:32;;;;;;;7.47;3.00;;;;;;;;;;735767;188;618119;-73
2022/06/23 13:54:59;;;;;;;7.87;2.90;;;;;;;;;;772800;180;643053;-74
2022/06/23 13:57:42;;;;;;;4.73;2.90;;;;;;;;;;769810;180;1002343;-71
2022/06/23 14:00:09;;;;;;;5.57;2.80;;;;;;;;;;757833;181;668422;-71
2022/06/23 14:02:37;;;;;;;4.50;2.83;;;;;;;;;;772022;180;637063;-75
2022/06/23 14:05:02;;;;;;;5.10;3.37;;;;;;;;;;772322;180;669568;-73
2022/06/23 14:07:28;;;;;;;4.30;2.87;;;;;;;;;;766770;181;919638;-74
2022/06/23 14:09:54;;;;;;;5.33;2.73;;;;;;;;;;770067;180;649714;-73
2022/06/23 14:12:21;;;;;;;4.80;2.57;;;;;;;;;;760612;182;618828;-76
2022/06/23 14:14:47;;;;;;;5.80;3.43;;;;;;;;;;773159;180;613624;-73
2022/06/23 14:17:17;;;;;;;5.00;2.87;;;;;;;;;;769895;181;616352;-74
2022/06/23 14:19:45;;;;;;;5.07;2.67;;;;;;;;;;771597;180;619770;-72
2022/06/23 14:22:12;;;;;;;6.60;3.03;;;;;;;;;;770512;180;619694;-72
2022/06/23 14:24:39;;;;;;;3.70;2.73;;;;;;;;;;775086;177;749490;-75
2022/06/23 14:27:09;;;;;;;6.57;2.47;;;;;;;;;;767291;181;915035;-72
2022/06/23 14:29:40;;;;;;;4.87;2.80;;;;;;;;;;766364;181;620754;-70
2022/06/23 14:32:08;;;;;;;6.60;2.77;;;;;;;;;;768003;180;948973;-71
2022/06/23 14:34:35;;;;;;;5.67;3.50;;;;;;;;;;766228;181;918146;-70
2022/06/23 14:37:02;;;;;;;7.47;3.37;;;;;;;;;;771397;180;634307;-73
2022/06/23 14:39:28;;;;;;;5.30;2.80;;;;;;;;;;766369;181;619006;-68
2022/06/23 14:42:09;;;;;;;5.23;3.40;;;;;;;;;;774373;180;658188;-71
2022/06/23 14:44:35;;;;;;;5.93;4.43;;;;;;;;;;774669;180;620855;-72
2022/06/23 14:47:04;;;;;;;6.23;3.60;;;;;;;;;;754847;181;621562;-72
2022/06/23 14:49:32;;;;;;;8.57;7.87;;;;;;;;;;762216;181;627311;-70
2022/06/23 14:52:01;;;;;;;6.83;5.03;;;;;;;;;;765180;180;630286;-70